createdAt,value
2018-09-09T00:01:30.154Z,48.88
2018-09-09T00:03:59.491Z,48.78
2018-09-09T00:06:29.906Z,48.67
2018-09-09T00:08:59.757Z,48.70
2018-09-09T00:11:29.333Z,49.39
2018-09-09T00:13:59.132Z,49.46
2018-09-09T00:16:29.097Z,49.61
2018-09-09T00:18:58.493Z,49.85
2018-09-09T00:21:27.440Z,49.00
2018-09-09T00:23:56.426Z,49.48
2018-09-09T00:26:26.021Z,48.88
2018-09-09T00:28:55.414Z,49.25
2018-09-09T00:31:25.198Z,48.39
2018-09-09T00:33:54.693Z,48.53
2018-09-09T00:36:24.648Z,48.62
2018-09-09T00:38:55.577Z,48.66
2018-09-09T00:41:25.535Z,49.19
2018-09-09T00:43:54.767Z,49.38
2018-09-09T00:46:24.786Z,49.49
2018-09-09T00:48:58.849Z,50.09
2018-09-09T00:51:33.417Z,50.14
2018-09-09T00:54:02.950Z,49.82
2018-09-09T00:56:34.297Z,49.76
2018-09-09T00:59:03.543Z,49.93
2018-09-09T01:01:34.005Z,49.18
2018-09-09T01:04:04.677Z,49.79
2018-09-09T01:06:34.090Z,49.71
2018-09-09T01:09:03.793Z,49.21
2018-09-09T01:11:33.614Z,49.12
2018-09-09T01:14:02.594Z,49.02
2018-09-09T01:16:32.067Z,48.61
2018-09-09T01:19:01.315Z,48.57
2018-09-09T01:21:30.414Z,48.58
2018-09-09T01:24:00.433Z,48.17
2018-09-09T01:26:30.045Z,47.67
2018-09-09T01:28:59.158Z,48.06
2018-09-09T01:31:29.584Z,48.12
2018-09-09T01:33:59.403Z,48.44
2018-09-09T01:36:28.655Z,48.08
2018-09-09T01:38:57.429Z,48.30
2018-09-09T01:41:26.729Z,48.29
2018-09-09T01:43:56.143Z,48.02
2018-09-09T01:46:25.549Z,48.60
2018-09-09T01:48:54.541Z,48.02
2018-09-09T01:51:23.580Z,47.31
2018-09-09T01:53:52.644Z,47.95
2018-09-09T01:56:22.771Z,48.35
2018-09-09T01:58:51.980Z,48.19
2018-09-09T02:01:20.879Z,47.86
2018-09-09T02:03:50.688Z,47.79
2018-09-09T02:06:20.699Z,47.61
2018-09-09T02:08:50.716Z,47.11
2018-09-09T02:11:19.811Z,47.34
2018-09-09T02:13:48.835Z,47.81
2018-09-09T02:16:18.126Z,48.41
2018-09-09T02:18:47.088Z,48.01
2018-09-09T02:21:16.735Z,47.47
2018-09-09T02:23:46.222Z,47.80
2018-09-09T02:26:15.596Z,47.71
2018-09-09T02:28:44.815Z,48.30
2018-09-09T02:31:14.910Z,47.37
2018-09-09T02:33:44.304Z,47.19
2018-09-09T02:36:14.302Z,48.23
2018-09-09T02:38:44.154Z,48.28
2018-09-09T02:41:14.031Z,48.30
2018-09-09T02:43:43.234Z,48.38
2018-09-09T02:46:12.144Z,48.70
2018-09-09T02:48:41.486Z,47.72
2018-09-09T02:51:10.409Z,48.06
2018-09-09T02:53:40.176Z,48.33
2018-09-09T02:56:10.901Z,48.48
2018-09-09T02:58:39.878Z,47.84
2018-09-09T03:01:09.919Z,47.86
2018-09-09T03:03:40.312Z,48.51
2018-09-09T03:06:10.696Z,48.17
2018-09-09T03:08:40.713Z,48.49
2018-09-09T03:11:14.328Z,48.61
2018-09-09T03:13:45.314Z,47.51
2018-09-09T03:16:14.539Z,48.07
2018-09-09T03:18:44.289Z,47.02
2018-09-09T03:21:13.517Z,47.86
2018-09-09T03:23:44.922Z,47.21
2018-09-09T03:26:14.500Z,47.35
2018-09-09T03:28:43.498Z,47.16
2018-09-09T03:31:12.349Z,47.82
2018-09-09T03:33:41.648Z,46.84
2018-09-09T03:36:10.575Z,47.35
2018-09-09T03:38:40.931Z,46.67
2018-09-09T03:41:10.230Z,47.27
2018-09-09T03:43:39.218Z,47.35
2018-09-09T03:46:08.862Z,48.11
2018-09-09T03:48:39.857Z,47.79
2018-09-09T03:51:09.704Z,47.97
2018-09-09T03:53:38.866Z,48.55
2018-09-09T03:56:08.046Z,48.15
2018-09-09T03:58:37.657Z,48.44
2018-09-09T04:01:07.323Z,48.57
2018-09-09T04:03:36.623Z,48.38
2018-09-09T04:06:12.210Z,48.38
2018-09-09T04:08:42.020Z,48.43
2018-09-09T04:11:11.906Z,48.16
2018-09-09T04:13:42.363Z,48.53
2018-09-09T04:16:13.465Z,48.97
2018-09-09T04:18:43.666Z,48.57
2018-09-09T04:21:12.749Z,48.62
2018-09-09T04:23:41.940Z,49.46
2018-09-09T04:26:11.235Z,49.69
2018-09-09T04:28:41.064Z,49.87
2018-09-09T04:31:10.983Z,49.70
2018-09-09T04:33:40.295Z,49.97
2018-09-09T04:36:09.612Z,49.77
2018-09-09T04:38:38.749Z,49.44
2018-09-09T04:41:08.929Z,49.55
2018-09-09T04:43:37.774Z,49.80
2018-09-09T04:46:06.945Z,49.38
2018-09-09T04:48:37.930Z,49.51
2018-09-09T04:51:06.910Z,49.42
2018-09-09T04:53:36.103Z,49.73
2018-09-09T04:56:05.150Z,49.44
2018-09-09T04:58:34.258Z,48.48
2018-09-09T05:01:04.333Z,48.45
2018-09-09T05:03:33.868Z,49.33
2018-09-09T05:06:02.902Z,49.38
2018-09-09T05:08:32.445Z,49.39
2018-09-09T05:11:02.402Z,49.29
2018-09-09T05:13:32.678Z,50.18
2018-09-09T05:16:01.984Z,50.14
2018-09-09T05:18:31.672Z,50.31
2018-09-09T05:21:01.878Z,49.81
2018-09-09T05:23:31.125Z,50.04
2018-09-09T05:26:00.710Z,50.13
2018-09-09T05:28:30.148Z,50.92
2018-09-09T05:30:59.812Z,50.96
2018-09-09T05:33:29.412Z,50.52
2018-09-09T05:35:58.973Z,51.11
2018-09-09T05:38:29.626Z,51.28
2018-09-09T05:40:59.350Z,51.26
2018-09-09T05:43:28.566Z,51.72
2018-09-09T05:45:58.981Z,51.20
2018-09-09T05:48:27.914Z,51.70
2018-09-09T05:50:58.012Z,51.79
2018-09-09T05:53:27.179Z,50.98
2018-09-09T05:55:56.593Z,51.56
2018-09-09T05:58:26.103Z,51.25
2018-09-09T06:00:55.818Z,50.38
2018-09-09T06:03:25.897Z,50.70
2018-09-09T06:05:55.759Z,50.39
2018-09-09T06:08:25.155Z,50.99
2018-09-09T06:10:54.741Z,51.06
2018-09-09T06:13:25.869Z,50.61
2018-09-09T06:15:55.746Z,51.16
2018-09-09T06:18:25.018Z,51.46
2018-09-09T06:20:54.435Z,50.68
2018-09-09T06:23:23.824Z,50.81
2018-09-09T06:25:53.021Z,51.14
2018-09-09T06:28:22.073Z,50.54
2018-09-09T06:30:51.271Z,50.36
2018-09-09T06:33:20.297Z,50.37
2018-09-09T06:35:49.523Z,49.34
2018-09-09T06:38:18.623Z,49.18
2018-09-09T06:40:48.252Z,49.84
2018-09-09T06:43:18.154Z,49.88
2018-09-09T06:45:48.455Z,49.92
2018-09-09T06:48:18.006Z,49.91
2018-09-09T06:50:47.249Z,50.74
2018-09-09T06:53:16.358Z,50.31
2018-09-09T06:55:45.992Z,49.57
2018-09-09T06:58:14.959Z,49.92
2018-09-09T07:00:44.633Z,49.92
2018-09-09T07:03:14.499Z,49.53
2018-09-09T07:05:43.970Z,49.98
2018-09-09T07:08:13.712Z,50.35
2018-09-09T07:10:42.873Z,50.10
2018-09-09T07:13:12.820Z,49.55
2018-09-09T07:15:42.787Z,48.68
2018-09-09T07:18:11.934Z,48.87
2018-09-09T07:20:41.901Z,49.12
2018-09-09T07:23:12.049Z,47.67
2018-09-09T07:25:40.972Z,48.00
2018-09-09T07:28:10.630Z,48.25
2018-09-09T07:30:40.385Z,46.73
2018-09-09T07:33:10.258Z,46.12
2018-09-09T07:35:40.034Z,45.76
2018-09-09T07:38:09.066Z,46.67
2018-09-09T07:40:39.164Z,46.12
2018-09-09T07:43:10.211Z,45.56
2018-09-09T07:45:40.046Z,44.88
2018-09-09T07:48:09.482Z,45.63
2018-09-09T07:50:38.742Z,44.59
2018-09-09T07:53:08.207Z,44.78
2018-09-09T07:55:38.434Z,44.65
2018-09-09T07:58:10.429Z,45.34
2018-09-09T08:00:41.555Z,45.30
2018-09-09T08:03:11.455Z,44.96
2018-09-09T08:05:41.364Z,44.87
2018-09-09T08:08:10.866Z,44.92
2018-09-09T08:10:39.766Z,44.18
2018-09-09T08:13:09.245Z,43.24
2018-09-09T08:15:38.081Z,42.36
2018-09-09T08:18:07.279Z,42.14
2018-09-09T08:20:37.876Z,42.10
2018-09-09T08:23:07.717Z,41.85
2018-09-09T08:25:36.891Z,40.89
2018-09-09T08:28:07.009Z,40.51
2018-09-09T08:30:36.617Z,40.71
2018-09-09T08:33:05.687Z,40.46
2018-09-09T08:35:36.213Z,38.55
2018-09-09T08:38:06.892Z,38.58
2018-09-09T08:40:35.959Z,37.50
2018-09-09T08:43:05.234Z,36.22
2018-09-09T08:45:34.873Z,35.83
2018-09-09T08:48:04.016Z,33.99
2018-09-09T08:50:33.370Z,32.53
2018-09-09T08:53:02.229Z,32.72
2018-09-09T08:55:32.600Z,33.39
2018-09-09T08:58:02.529Z,31.83
2018-09-09T09:00:31.537Z,31.50
2018-09-09T09:03:01.663Z,31.53
2018-09-09T09:05:31.000Z,30.85
2018-09-09T09:08:01.561Z,31.49
2018-09-09T09:10:30.691Z,32.70
2018-09-09T09:13:00.327Z,32.22
2018-09-09T09:15:29.762Z,33.74
2018-09-09T09:17:59.256Z,33.37
2018-09-09T09:20:30.027Z,32.29
2018-09-09T09:22:59.439Z,32.34
2018-09-09T09:25:28.579Z,32.34
2018-09-09T09:27:58.641Z,33.68
2018-09-09T09:30:27.654Z,34.13
2018-09-09T09:32:56.961Z,34.58
2018-09-09T09:35:31.117Z,33.80
2018-09-09T09:38:00.372Z,33.20
2018-09-09T09:40:30.263Z,32.42
2018-09-09T09:43:01.069Z,33.43
2018-09-09T09:45:30.015Z,33.34
2018-09-09T09:47:59.491Z,33.40
2018-09-09T09:50:28.836Z,34.58
2018-09-09T09:52:58.825Z,35.46
2018-09-09T09:55:28.769Z,36.52
2018-09-09T09:57:58.131Z,34.53
2018-09-09T10:00:32.532Z,34.70
2018-09-09T10:03:01.314Z,34.52
2018-09-09T10:05:30.011Z,33.91
2018-09-09T10:07:58.942Z,33.41
2018-09-09T10:10:27.667Z,36.08
2018-09-09T10:12:57.051Z,36.88
2018-09-09T10:15:25.799Z,34.14
2018-09-09T10:17:55.073Z,35.01
2018-09-09T10:20:23.809Z,33.76
2018-09-09T10:22:53.023Z,34.35
2018-09-09T10:25:21.806Z,33.02
2018-09-09T10:27:51.318Z,32.60
2018-09-09T10:30:20.147Z,31.88
2018-09-09T10:32:49.538Z,32.69
2018-09-09T10:35:18.386Z,33.88
2018-09-09T10:37:47.623Z,32.25
2018-09-09T10:40:16.784Z,30.76
2018-09-09T10:42:45.877Z,31.04
2018-09-09T10:45:15.234Z,32.06
2018-09-09T10:47:44.252Z,31.17
2018-09-09T10:50:13.193Z,31.49
2018-09-09T10:52:41.952Z,31.81
2018-09-09T10:55:11.552Z,30.53
2018-09-09T10:57:40.291Z,30.51
2018-09-09T11:00:09.064Z,32.58
2018-09-09T11:02:37.922Z,32.09
2018-09-09T11:05:06.718Z,32.74
2018-09-09T11:07:35.455Z,32.03
2018-09-09T11:10:04.294Z,32.97
2018-09-09T11:12:33.500Z,30.86
2018-09-09T11:15:02.787Z,31.36
2018-09-09T11:17:32.351Z,29.86
2018-09-09T11:20:01.090Z,30.53
2018-09-09T11:22:30.703Z,31.25
2018-09-09T11:24:59.484Z,31.14
2018-09-09T11:27:28.257Z,31.49
2018-09-09T11:29:57.142Z,31.54
2018-09-09T11:32:25.880Z,32.66
2018-09-09T11:34:54.838Z,33.18
2018-09-09T11:37:23.674Z,32.97
2018-09-09T11:39:52.893Z,29.82
2018-09-09T11:42:22.013Z,29.87
2018-09-09T11:44:50.813Z,29.80
2018-09-09T11:47:19.846Z,28.11
2018-09-09T11:49:48.765Z,28.13
2018-09-09T11:52:17.830Z,26.70
2018-09-09T11:54:46.668Z,25.71
2018-09-09T11:57:15.501Z,27.12
2018-09-09T11:59:44.343Z,24.02
2018-09-09T12:02:13.118Z,24.28
2018-09-09T12:04:41.823Z,21.45
2018-09-09T12:07:10.869Z,20.47
2018-09-09T12:09:39.559Z,19.56
2018-09-09T12:12:08.387Z,18.70
2018-09-09T12:14:37.428Z,17.37
2018-09-09T12:17:06.885Z,15.54
2018-09-09T12:19:35.668Z,14.38
2018-09-09T12:22:04.819Z,13.96
2018-09-09T12:24:34.167Z,13.38
2018-09-09T12:27:03.214Z,14.44
2018-09-09T12:29:32.274Z,12.83
2018-09-09T12:32:01.063Z,12.38
2018-09-09T12:34:30.366Z,11.97
2018-09-09T12:36:59.170Z,10.88
2018-09-09T12:39:27.910Z,10.71
2018-09-09T12:41:56.656Z,11.36
2018-09-09T12:44:30.563Z,13.02
2018-09-09T12:47:04.887Z,11.30
2018-09-09T12:49:33.624Z,12.91
2018-09-09T12:52:02.814Z,16.61
2018-09-09T12:54:31.970Z,21.45
2018-09-09T12:57:01.015Z,20.09
2018-09-09T12:59:30.007Z,21.63
2018-09-09T13:01:58.809Z,21.76
2018-09-09T13:04:27.638Z,24.27
2018-09-09T13:06:56.390Z,23.75
2018-09-09T13:09:25.160Z,25.90
2018-09-09T13:11:53.870Z,26.92
2018-09-09T13:14:22.943Z,27.02
2018-09-09T13:16:52.580Z,26.48
2018-09-09T13:19:21.449Z,25.87
2018-09-09T13:21:50.562Z,27.62
2018-09-09T13:24:19.324Z,28.80
2018-09-09T13:26:48.158Z,29.75
2018-09-09T13:29:17.001Z,29.94
2018-09-09T13:31:45.935Z,30.83
2018-09-09T13:34:14.742Z,30.65
2018-09-09T13:36:43.903Z,31.10
2018-09-09T13:39:12.758Z,29.20
2018-09-09T13:41:41.588Z,29.13
2018-09-09T13:44:10.551Z,29.94
2018-09-09T13:46:39.492Z,29.15
2018-09-09T13:49:08.342Z,30.03
2018-09-09T13:51:37.090Z,28.77
2018-09-09T13:54:06.012Z,28.65
2018-09-09T13:56:34.877Z,29.05
2018-09-09T13:59:03.716Z,29.45
2018-09-09T14:01:32.556Z,29.43
2018-09-09T14:04:01.363Z,29.06
2018-09-09T14:06:30.203Z,29.24
2018-09-09T14:08:59.293Z,29.99
2018-09-09T14:11:28.035Z,29.28
2018-09-09T14:13:56.741Z,30.44
2018-09-09T14:16:25.562Z,29.42
2018-09-09T14:18:54.764Z,29.96
2018-09-09T14:21:23.790Z,28.52
2018-09-09T14:23:52.925Z,28.21
2018-09-09T14:26:21.773Z,28.36
2018-09-09T14:28:50.726Z,28.67
2018-09-09T14:31:19.459Z,28.42
2018-09-09T14:33:48.509Z,28.09
2018-09-09T14:36:17.266Z,29.65
2018-09-09T14:38:45.977Z,29.97
2018-09-09T14:41:14.925Z,29.62
2018-09-09T14:43:43.983Z,30.18
2018-09-09T14:46:13.049Z,29.83
2018-09-09T14:48:41.774Z,30.21
2018-09-09T14:51:11.161Z,28.55
2018-09-09T14:53:40.216Z,28.51
2018-09-09T14:56:09.033Z,28.97
2018-09-09T14:58:37.824Z,27.88
2018-09-09T15:01:06.709Z,30.68
2018-09-09T15:03:36.487Z,28.56
2018-09-09T15:06:05.400Z,29.77
2018-09-09T15:08:34.345Z,30.46
2018-09-09T15:11:03.181Z,29.12
2018-09-09T15:13:33.294Z,28.64
2018-09-09T15:16:02.197Z,29.22
2018-09-09T15:18:32.126Z,28.91
2018-09-09T15:21:02.094Z,27.00
2018-09-09T15:23:31.162Z,27.52
2018-09-09T15:26:00.080Z,27.60
2018-09-09T15:28:29.018Z,28.95
2018-09-09T15:30:57.907Z,28.18
2018-09-09T15:33:26.634Z,29.08
2018-09-09T15:35:55.485Z,29.09
2018-09-09T15:38:24.231Z,27.85
2018-09-09T15:40:53.095Z,27.50
2018-09-09T15:43:21.834Z,28.55
2018-09-09T15:45:50.963Z,28.05
2018-09-09T15:48:19.873Z,28.39
2018-09-09T15:50:49.306Z,28.29
2018-09-09T15:53:18.170Z,28.81
2018-09-09T15:55:47.579Z,30.22
2018-09-09T15:58:16.251Z,31.05
2018-09-09T16:00:45.366Z,31.35
2018-09-09T16:03:14.561Z,31.87
2018-09-09T16:05:43.401Z,32.37
2018-09-09T16:08:13.582Z,29.45
2018-09-09T16:10:43.734Z,31.76
2018-09-09T16:13:13.743Z,32.26
2018-09-09T16:15:42.921Z,32.08
2018-09-09T16:18:12.772Z,31.20
2018-09-09T16:20:42.183Z,32.21
2018-09-09T16:23:11.286Z,32.00
2018-09-09T16:25:42.261Z,31.15
2018-09-09T16:28:11.287Z,31.95
2018-09-09T16:30:40.743Z,31.15
2018-09-09T16:33:10.581Z,30.91
2018-09-09T16:35:40.648Z,30.70
2018-09-09T16:38:11.256Z,31.03
2018-09-09T16:40:41.337Z,32.29
2018-09-09T16:43:10.501Z,33.37
2018-09-09T16:45:39.379Z,31.60
2018-09-09T16:48:08.123Z,33.14
2018-09-09T16:50:38.137Z,34.04
2018-09-09T16:53:08.076Z,34.28
2018-09-09T16:55:37.388Z,34.34
2018-09-09T16:58:07.576Z,34.36
2018-09-09T17:00:37.935Z,34.48
2018-09-09T17:03:08.047Z,34.58
2018-09-09T17:05:37.559Z,34.86
2018-09-09T17:08:06.267Z,34.80
2018-09-09T17:10:35.308Z,34.55
2018-09-09T17:13:04.403Z,35.16
2018-09-09T17:15:34.318Z,35.34
2018-09-09T17:18:03.421Z,36.13
2018-09-09T17:20:32.841Z,35.69
2018-09-09T17:23:01.940Z,36.30
2018-09-09T17:25:31.045Z,36.20
2018-09-09T17:28:00.193Z,36.04
2018-09-09T17:30:28.948Z,36.62
2018-09-09T17:32:58.227Z,37.66
2018-09-09T17:35:28.077Z,37.93
2018-09-09T17:37:56.799Z,37.46
2018-09-09T17:40:25.831Z,37.57
2018-09-09T17:42:55.228Z,38.12
2018-09-09T17:45:24.885Z,38.21
2018-09-09T17:47:53.693Z,38.75
2018-09-09T17:50:22.486Z,38.67
2018-09-09T17:52:51.444Z,39.44
2018-09-09T17:55:20.193Z,39.93
2018-09-09T17:57:49.190Z,39.59
2018-09-09T18:00:18.236Z,40.51
2018-09-09T18:02:47.618Z,40.32
2018-09-09T18:05:16.666Z,40.56
2018-09-09T18:07:45.473Z,40.84
2018-09-09T18:10:14.683Z,41.64
2018-09-09T18:12:44.275Z,40.83
2018-09-09T18:15:13.807Z,41.42
2018-09-09T18:17:42.668Z,41.31
2018-09-09T18:20:13.031Z,41.79
2018-09-09T18:22:42.555Z,41.96
2018-09-09T18:25:11.752Z,42.41
2018-09-09T18:27:40.912Z,41.78
2018-09-09T18:30:11.441Z,42.77
2018-09-09T18:32:41.219Z,42.59
2018-09-09T18:35:10.104Z,43.15
2018-09-09T18:37:39.319Z,43.43
2018-09-09T18:40:08.414Z,43.57
2018-09-09T18:42:37.716Z,43.52
2018-09-09T18:45:08.296Z,43.95
2018-09-09T18:47:37.094Z,44.12
2018-09-09T18:50:06.395Z,44.10
2018-09-09T18:52:41.824Z,43.74
2018-09-09T18:55:10.705Z,44.16
2018-09-09T18:57:39.508Z,44.29
2018-09-09T19:00:08.298Z,44.46
2018-09-09T19:02:37.072Z,44.32
2018-09-09T19:05:06.042Z,44.84
2018-09-09T19:07:35.017Z,45.42
2018-09-09T19:10:04.095Z,45.48
2018-09-09T19:12:33.094Z,45.85
2018-09-09T19:15:03.382Z,45.72
2018-09-09T19:17:32.510Z,45.86
2018-09-09T19:20:02.996Z,45.96
2018-09-09T19:22:31.892Z,46.39
2018-09-09T19:25:01.939Z,46.60
2018-09-09T19:27:33.085Z,46.98
2018-09-09T19:30:02.406Z,47.09
2018-09-09T19:32:31.120Z,46.60
2018-09-09T19:34:59.907Z,46.87
2018-09-09T19:37:28.846Z,46.98
2018-09-09T19:39:57.668Z,47.04
2018-09-09T19:42:26.647Z,47.28
2018-09-09T19:44:56.544Z,47.61
2018-09-09T19:47:25.717Z,46.89
2018-09-09T19:49:55.754Z,47.75
2018-09-09T19:52:25.296Z,47.52
2018-09-09T19:54:54.227Z,47.66
2018-09-09T19:57:23.160Z,48.11
2018-09-09T19:59:52.188Z,48.18
2018-09-09T20:02:22.047Z,48.26
2018-09-09T20:04:51.526Z,48.22
2018-09-09T20:07:20.313Z,48.17
2018-09-09T20:09:50.086Z,48.37
2018-09-09T20:12:19.176Z,48.44
2018-09-09T20:14:48.071Z,48.93
2018-09-09T20:17:16.898Z,49.04
2018-09-09T20:19:46.861Z,48.91
2018-09-09T20:22:16.777Z,49.65
2018-09-09T20:24:46.946Z,49.15
2018-09-09T20:27:17.330Z,49.17
2018-09-09T20:29:49.144Z,49.25
2018-09-09T20:32:18.781Z,49.44
2018-09-09T20:34:47.620Z,50.08
2018-09-09T20:37:16.796Z,50.17
2018-09-09T20:39:45.938Z,49.79
2018-09-09T20:42:15.443Z,50.08
2018-09-09T20:44:45.522Z,50.43
2018-09-09T20:47:15.123Z,49.95
2018-09-09T20:49:44.128Z,50.04
2018-09-09T20:52:14.003Z,50.47
2018-09-09T20:54:45.381Z,50.46
2018-09-09T20:57:14.399Z,50.02
2018-09-09T20:59:43.597Z,50.37
2018-09-09T21:02:14.043Z,49.83
2018-09-09T21:04:43.408Z,49.92
2018-09-09T21:07:12.928Z,49.96
2018-09-09T21:09:43.623Z,50.42
2018-09-09T21:12:13.045Z,49.86
2018-09-09T21:14:42.922Z,50.06
2018-09-09T21:17:11.875Z,50.19
2018-09-09T21:19:41.483Z,50.63
2018-09-09T21:22:11.519Z,50.49
2018-09-09T21:24:41.354Z,50.89
2018-09-09T21:27:10.216Z,51.05
2018-09-09T21:29:39.532Z,50.26
2018-09-09T21:32:09.126Z,50.93
2018-09-09T21:34:38.778Z,50.41
2018-09-09T21:37:08.025Z,51.04
2018-09-09T21:39:37.299Z,50.43
2018-09-09T21:42:06.527Z,50.28
2018-09-09T21:44:36.960Z,50.05
2018-09-09T21:47:06.395Z,49.49
2018-09-09T21:49:35.454Z,49.30
2018-09-09T21:52:04.332Z,49.58
2018-09-09T21:54:33.501Z,50.24
2018-09-09T21:57:03.858Z,50.12
2018-09-09T21:59:33.590Z,49.91
2018-09-09T22:02:04.094Z,50.29
2018-09-09T22:04:33.730Z,49.85
2018-09-09T22:07:03.793Z,50.46
2018-09-09T22:09:33.159Z,50.19
2018-09-09T22:12:02.201Z,50.63
2018-09-09T22:14:31.727Z,50.80
2018-09-09T22:17:01.060Z,50.96
2018-09-09T22:19:30.115Z,50.45
2018-09-09T22:21:59.133Z,50.50
2018-09-09T22:24:29.251Z,50.73
2018-09-09T22:26:58.116Z,50.79
2018-09-09T22:29:26.979Z,50.82
2018-09-09T22:31:56.738Z,50.99
2018-09-09T22:34:26.629Z,50.50
2018-09-09T22:36:56.962Z,50.71
2018-09-09T22:39:26.077Z,50.72
2018-09-09T22:41:55.377Z,50.82
2018-09-09T22:44:24.437Z,50.20
2018-09-09T22:46:53.695Z,50.77
2018-09-09T22:49:23.829Z,50.56
2018-09-09T22:51:53.157Z,50.50
2018-09-09T22:54:22.958Z,50.76
2018-09-09T22:56:51.977Z,50.84
2018-09-09T22:59:20.959Z,51.04
2018-09-09T23:01:51.009Z,50.88
2018-09-09T23:04:20.110Z,50.93
2018-09-09T23:06:49.378Z,50.58
2018-09-09T23:09:19.204Z,51.23
2018-09-09T23:11:48.759Z,51.39
2018-09-09T23:14:18.423Z,50.72
2018-09-09T23:16:47.728Z,51.41
2018-09-09T23:19:18.390Z,50.81
2018-09-09T23:21:47.281Z,51.54
2018-09-09T23:24:16.743Z,51.76
2018-09-09T23:26:47.337Z,51.83
2018-09-09T23:29:17.460Z,51.71
2018-09-09T23:31:46.687Z,51.87
2018-09-09T23:34:16.044Z,52.06
2018-09-09T23:36:46.187Z,51.92
2018-09-09T23:39:15.875Z,51.85
2018-09-09T23:41:45.696Z,51.98
2018-09-09T23:44:14.802Z,51.90
2018-09-09T23:46:44.697Z,51.99
2018-09-09T23:49:14.728Z,52.29
2018-09-09T23:51:45.163Z,52.41
2018-09-09T23:54:14.913Z,52.36
2018-09-09T23:56:45.241Z,51.88
2018-09-09T23:59:14.394Z,51.96
